createdAt,value
2023-01-01T00:00:27.990Z,2.97
2023-01-01T00:02:56.368Z,2.33
2023-01-01T00:05:24.692Z,3.77
2023-01-01T00:07:53.305Z,1.50
2023-01-01T00:10:31.477Z,3.90
2023-01-01T00:13:01.669Z,4.63
2023-01-01T00:15:30.372Z,4.03
2023-01-01T00:17:59.077Z,6.20
2023-01-01T00:20:34.675Z,8.73
2023-01-01T00:23:04.722Z,6.27
2023-01-01T00:25:33.465Z,6.20
2023-01-01T00:28:03.163Z,5.07
2023-01-01T00:30:31.939Z,6.73
2023-01-01T00:33:00.291Z,3.90
2023-01-01T00:35:29.573Z,5.70
2023-01-01T00:37:58.484Z,3.87
2023-01-01T00:40:26.755Z,3.00
2023-01-01T00:42:55.077Z,7.57
2023-01-01T00:45:24.694Z,8.33
2023-01-01T00:47:54.400Z,5.03
2023-01-01T00:50:22.916Z,5.60
2023-01-01T00:52:51.485Z,3.77
2023-01-01T00:55:19.957Z,3.07
2023-01-01T00:57:48.914Z,3.03
2023-01-01T01:00:18.044Z,3.90
2023-01-01T01:02:47.994Z,2.07
2023-01-01T01:05:16.597Z,3.80
2023-01-01T01:07:45.025Z,3.10
2023-01-01T01:10:13.368Z,5.00
2023-01-01T01:12:42.160Z,1.00
2023-01-01T01:15:11.184Z,3.47
2023-01-01T01:17:39.555Z,2.47
2023-01-01T01:20:10.589Z,6.00
2023-01-01T01:22:39.332Z,1.47
2023-01-01T01:25:09.199Z,2.93
2023-01-01T01:27:37.738Z,2.87
2023-01-01T01:30:07.402Z,1.30
2023-01-01T01:32:36.451Z,4.10
2023-01-01T01:35:05.787Z,4.43
2023-01-01T01:37:35.680Z,4.07
2023-01-01T01:40:04.203Z,2.50
2023-01-01T01:42:33.058Z,2.80
2023-01-01T01:45:02.627Z,2.40
2023-01-01T01:47:33.634Z,3.87
2023-01-01T01:50:05.714Z,5.23
2023-01-01T01:52:36.275Z,5.27
2023-01-01T01:55:05.548Z,4.23
2023-01-01T01:57:34.418Z,3.93
2023-01-01T02:00:10.609Z,3.40
2023-01-01T02:02:42.324Z,3.97
2023-01-01T02:05:11.033Z,4.23
2023-01-01T02:07:40.799Z,2.17
2023-01-01T02:10:09.642Z,3.83
2023-01-01T02:12:41.375Z,5.60
2023-01-01T02:15:11.078Z,3.63
2023-01-01T02:17:42.895Z,4.00
2023-01-01T02:20:29.548Z,6.10
2023-01-01T02:23:10.517Z,3.50
2023-01-01T02:25:45.609Z,3.07
2023-01-01T02:28:18.461Z,4.33
2023-01-01T02:30:49.884Z,2.77
2023-01-01T02:33:20.253Z,2.60
2023-01-01T02:35:50.678Z,2.27
2023-01-01T02:42:13.565Z,3.43
2023-01-01T02:44:44.732Z,4.17
2023-01-01T02:47:17.577Z,3.20
2023-01-01T02:49:52.565Z,3.03
2023-01-01T02:52:29.227Z,1.87
2023-01-01T02:55:02.533Z,2.17
2023-01-01T02:57:34.233Z,2.87
2023-01-01T03:00:19.932Z,3.13
2023-01-01T03:02:54.784Z,2.60
2023-01-01T03:05:27.697Z,2.37
2023-01-01T03:08:01.929Z,2.17
2023-01-01T03:10:34.582Z,2.57
2023-01-01T03:13:05.334Z,1.47
2023-01-01T03:15:37.403Z,1.87
2023-01-01T03:18:11.068Z,3.90
2023-01-01T03:20:42.303Z,4.07
2023-01-01T03:23:14.033Z,2.03
2023-01-01T03:25:44.437Z,1.87
2023-01-01T03:28:16.417Z,2.17
2023-01-01T03:30:46.810Z,1.83
2023-01-01T03:33:19.065Z,1.50
2023-01-01T03:35:48.698Z,1.33
2023-01-01T03:38:21.215Z,2.93
2023-01-01T03:40:51.640Z,1.40
2023-01-01T03:43:23.189Z,0.50
2023-01-01T03:45:52.786Z,0.97
2023-01-01T03:48:22.547Z,1.70
2023-01-01T03:50:57.969Z,2.40
2023-01-01T03:53:34.390Z,0.83
2023-01-01T03:56:07.683Z,2.23
2023-01-01T03:58:37.997Z,3.23
2023-01-01T04:01:10.798Z,1.20
2023-01-01T04:03:41.577Z,2.93
2023-01-01T04:06:10.896Z,1.10
2023-01-01T04:08:39.496Z,1.57
2023-01-01T04:11:30.021Z,2.50
2023-01-01T04:13:58.928Z,1.17
2023-01-01T04:16:27.710Z,0.37
2023-01-01T04:18:57.768Z,1.70
2023-01-01T04:21:26.503Z,0.93
2023-01-01T04:23:54.791Z,2.57
2023-01-01T04:26:23.096Z,1.60
2023-01-01T04:28:51.405Z,1.50
2023-01-01T04:31:19.662Z,0.57
2023-01-01T04:33:47.928Z,3.27
2023-01-01T04:36:17.549Z,2.80
2023-01-01T04:38:46.088Z,1.60
2023-01-01T04:41:14.856Z,2.03
2023-01-01T04:43:44.434Z,3.40
2023-01-01T04:46:12.704Z,0.93
2023-01-01T04:48:41.162Z,1.63
2023-01-01T04:51:09.463Z,1.23
2023-01-01T04:53:39.388Z,0.30
2023-01-01T04:56:09.923Z,1.00
2023-01-01T04:58:38.890Z,1.50
2023-01-01T05:01:08.114Z,1.27
2023-01-01T05:03:36.469Z,0.43
2023-01-01T05:06:05.303Z,1.33
2023-01-01T05:08:34.312Z,2.60
2023-01-01T05:11:04.542Z,1.43
2023-01-01T05:13:36.197Z,0.60
2023-01-01T05:16:05.193Z,1.83
2023-01-01T05:18:33.781Z,0.77
2023-01-01T05:21:03.398Z,2.33
2023-01-01T05:23:32.208Z,1.30
2023-01-01T05:26:01.001Z,1.13
2023-01-01T05:28:30.597Z,0.70
2023-01-01T05:30:59.125Z,1.90
2023-01-01T05:33:29.416Z,1.80
2023-01-01T05:35:57.829Z,0.70
2023-01-01T05:38:26.849Z,0.77
2023-01-01T05:40:57.488Z,0.23
2023-01-01T05:43:26.029Z,0.60
2023-01-01T05:46:02.611Z,1.13
2023-01-01T05:48:32.094Z,2.57
2023-01-01T05:51:03.823Z,1.33
2023-01-01T05:53:32.569Z,1.17
2023-01-01T05:56:01.138Z,0.83
2023-01-01T05:58:30.376Z,0.60
2023-01-01T06:01:08.197Z,0.67
2023-01-01T06:03:36.531Z,1.10
2023-01-01T06:06:05.885Z,1.13
2023-01-01T06:08:34.439Z,0.97
2023-01-01T06:11:04.274Z,0.40
2023-01-01T06:13:33.015Z,0.87
2023-01-01T06:16:02.239Z,2.20
2023-01-01T06:18:32.894Z,1.00
2023-01-01T06:21:05.250Z,0.20
2023-01-01T06:23:34.162Z,0.40
2023-01-01T06:26:06.568Z,1.30
2023-01-01T06:28:35.474Z,1.50
2023-01-01T06:31:04.149Z,0.97
2023-01-01T06:33:34.629Z,2.77
2023-01-01T06:36:03.954Z,0.93
2023-01-01T06:38:32.761Z,0.67
2023-01-01T06:41:03.786Z,1.03
2023-01-01T06:43:34.114Z,0.53
2023-01-01T06:46:03.194Z,1.40
2023-01-01T06:48:32.624Z,0.40
2023-01-01T06:51:07.141Z,1.00
2023-01-01T06:53:35.884Z,0.90
2023-01-01T06:58:54.392Z,1.40
2023-01-01T07:01:24.635Z,1.93
2023-01-01T07:03:53.693Z,2.13
2023-01-01T07:06:27.223Z,0.87
2023-01-01T07:08:55.596Z,0.93
2023-01-01T07:11:24.254Z,2.03
2023-01-01T07:13:52.744Z,1.33
2023-01-01T07:16:21.229Z,0.73
2023-01-01T07:18:50.911Z,1.23
2023-01-01T07:21:31.283Z,1.80
2023-01-01T07:24:01.698Z,0.70
2023-01-01T07:26:31.088Z,0.70
2023-01-01T07:29:06.763Z,0.63
2023-01-01T07:31:36.969Z,1.90
2023-01-01T07:34:06.260Z,0.87
2023-01-01T07:36:36.845Z,1.67
2023-01-01T07:39:05.129Z,1.40
2023-01-01T07:41:33.471Z,0.57
2023-01-01T07:44:02.883Z,1.03
2023-01-01T07:46:31.226Z,0.97
2023-01-01T07:48:59.946Z,2.27
2023-01-01T07:51:28.180Z,0.63
2023-01-01T07:54:03.914Z,1.03
2023-01-01T07:56:35.590Z,0.30
2023-01-01T07:59:04.143Z,1.03
2023-01-01T08:01:32.558Z,1.20
2023-01-01T08:04:02.343Z,0.37
2023-01-01T08:06:31.706Z,0.63
2023-01-01T08:09:01.532Z,1.90
2023-01-01T08:11:30.403Z,1.60
2023-01-01T08:13:58.668Z,1.37
2023-01-01T08:16:26.980Z,0.10
2023-01-01T08:18:55.337Z,1.33
2023-01-01T08:21:23.720Z,2.27
2023-01-01T08:23:53.737Z,0.47
2023-01-01T08:26:30.447Z,0.70
2023-01-01T08:28:59.058Z,1.70
2023-01-01T08:31:27.921Z,1.57
2023-01-01T08:33:56.315Z,1.53
2023-01-01T08:36:25.143Z,1.97
2023-01-01T08:38:53.658Z,3.50
2023-01-01T08:41:22.001Z,0.73
2023-01-01T08:43:52.113Z,1.63
2023-01-01T08:46:20.677Z,2.90
2023-01-01T08:48:50.019Z,0.80
2023-01-01T08:51:18.303Z,1.03
2023-01-01T08:53:51.284Z,1.80
2023-01-01T08:56:21.220Z,1.67
2023-01-01T08:58:50.034Z,2.63
2023-01-01T09:01:22.118Z,1.80
2023-01-01T09:03:50.776Z,1.73
2023-01-01T09:06:19.121Z,0.93
2023-01-01T09:08:47.539Z,1.80
2023-01-01T09:11:23.094Z,1.50
2023-01-01T09:13:54.841Z,1.23
2023-01-01T09:16:24.747Z,1.43
2023-01-01T09:18:53.065Z,1.40
2023-01-01T09:21:21.685Z,0.70
2023-01-01T09:23:50.347Z,0.77
2023-01-01T09:26:19.226Z,0.73
2023-01-01T09:28:47.503Z,2.50
2023-01-01T09:31:15.775Z,2.03
2023-01-01T09:33:46.005Z,1.80
2023-01-01T09:36:15.549Z,2.33
2023-01-01T09:38:45.359Z,3.07
2023-01-01T09:41:19.918Z,1.93
2023-01-01T09:43:52.413Z,0.60
2023-01-01T09:46:25.110Z,0.53
2023-01-01T09:49:01.044Z,1.33
2023-01-01T09:51:33.157Z,0.87
2023-01-01T09:54:03.162Z,1.33
2023-01-01T09:56:32.633Z,1.67
2023-01-01T09:59:01.246Z,1.43
2023-01-01T10:01:36.257Z,0.40
2023-01-01T10:04:16.616Z,0.40
2023-01-01T10:06:46.552Z,1.33
2023-01-01T10:09:22.023Z,1.87
2023-01-01T10:11:54.783Z,1.13
2023-01-01T10:14:25.959Z,3.30
2023-01-01T10:16:57.474Z,1.73
2023-01-01T10:19:29.921Z,0.87
2023-01-01T10:21:59.873Z,1.13
2023-01-01T10:24:35.267Z,1.30
2023-01-01T10:27:05.154Z,1.23
2023-01-01T10:29:37.439Z,1.50
2023-01-01T10:32:08.320Z,1.70
2023-01-01T10:34:37.990Z,1.17
2023-01-01T10:37:06.328Z,1.17
2023-01-01T10:39:34.741Z,0.27
2023-01-01T10:42:04.737Z,1.17
2023-01-01T10:44:35.019Z,1.33
2023-01-01T10:47:07.155Z,0.77
2023-01-01T10:49:55.178Z,1.47
2023-01-01T10:52:26.480Z,1.30
2023-01-01T10:54:55.098Z,0.97
2023-01-01T10:57:32.071Z,1.77
2023-01-01T11:00:21.593Z,0.70
2023-01-01T11:02:50.835Z,1.00
2023-01-01T11:05:22.723Z,1.00
2023-01-01T11:07:52.691Z,0.87
2023-01-01T11:10:21.846Z,0.53
2023-01-01T11:13:08.889Z,0.10
2023-01-01T11:15:41.679Z,1.50
2023-01-01T11:18:15.012Z,0.70
2023-01-01T11:20:54.742Z,0.10
2023-01-01T11:23:30.891Z,0.77
2023-01-01T11:26:06.610Z,0.47
2023-01-01T11:28:37.205Z,1.27
2023-01-01T11:31:10.235Z,1.73
2023-01-01T11:33:41.792Z,1.20
2023-01-01T11:36:12.302Z,0.83
2023-01-01T11:38:42.675Z,0.73
2023-01-01T11:41:11.023Z,0.43
2023-01-01T11:43:42.605Z,0.80
2023-01-01T11:46:12.743Z,1.30
2023-01-01T11:48:44.083Z,1.20
2023-01-01T11:51:29.562Z,0.60
2023-01-01T11:54:09.904Z,1.43
2023-01-01T11:56:41.278Z,0.93
2023-01-01T11:59:15.531Z,0.80
2023-01-01T12:01:46.604Z,1.10
2023-01-01T12:04:18.187Z,0.70
2023-01-01T12:06:50.333Z,1.60
2023-01-01T12:09:20.962Z,0.27
2023-01-01T12:11:53.296Z,0.63
2023-01-01T12:14:27.106Z,0.40
2023-01-01T12:17:02.234Z,0.70
2023-01-01T12:19:32.916Z,0.83
2023-01-01T12:22:02.786Z,0.40
2023-01-01T12:24:34.511Z,0.67
2023-01-01T12:27:11.064Z,0.73
2023-01-01T12:29:51.117Z,1.53
2023-01-01T12:32:25.471Z,0.20
2023-01-01T12:34:57.392Z,0.20
2023-01-01T12:37:31.600Z,0.33
2023-01-01T12:40:26.701Z,0.30
2023-01-01T12:43:00.139Z,0.53
2023-01-01T12:45:36.495Z,0.50
2023-01-01T12:48:10.685Z,0.10
2023-01-01T12:50:45.706Z,0.50
2023-01-01T12:53:26.223Z,0.33
2023-01-01T12:56:07.215Z,0.63
2023-01-01T12:58:37.115Z,0.60
2023-01-01T13:01:08.440Z,1.33
2023-01-01T13:03:38.791Z,0.67
2023-01-01T13:06:08.285Z,0.43
2023-01-01T13:08:39.220Z,0.87
2023-01-01T13:11:07.795Z,1.37
2023-01-01T13:13:36.619Z,0.73
2023-01-01T13:16:05.168Z,0.50
2023-01-01T13:18:35.018Z,0.60
2023-01-01T13:21:05.315Z,0.97
2023-01-01T13:23:45.148Z,0.40
2023-01-01T13:26:32.487Z,0.23
2023-01-01T13:29:20.220Z,0.83
2023-01-01T13:32:05.186Z,0.30
2023-01-01T13:34:35.255Z,1.03
2023-01-01T13:37:19.147Z,0.50
2023-01-01T13:39:55.724Z,0.60
2023-01-01T13:42:40.354Z,0.40
2023-01-01T13:45:36.977Z,0.10
2023-01-01T13:48:16.465Z,0.50
2023-01-01T13:50:50.996Z,0.33
2023-01-01T13:53:40.353Z,0.30
2023-01-01T13:56:18.027Z,0.50
2023-01-01T13:59:04.518Z,0.50
2023-01-01T14:01:43.857Z,1.03
2023-01-01T14:04:18.053Z,0.23
2023-01-01T14:06:50.094Z,1.27
2023-01-01T14:09:21.788Z,0.40
2023-01-01T14:11:51.657Z,1.03
2023-01-01T14:14:24.804Z,0.40
2023-01-01T14:16:54.092Z,0.87
2023-01-01T14:19:24.289Z,0.20
2023-01-01T14:22:01.608Z,0.27
2023-01-01T14:24:30.821Z,0.97
2023-01-01T14:27:00.715Z,0.40
2023-01-01T14:29:30.928Z,1.00
2023-01-01T14:32:01.015Z,0.97
2023-01-01T14:34:30.426Z,1.37
2023-01-01T14:36:59.808Z,0.73
2023-01-01T14:39:29.589Z,1.30
2023-01-01T14:42:00.687Z,0.23
2023-01-01T14:44:35.420Z,0.30
2023-01-01T14:47:03.804Z,0.73
2023-01-01T14:49:33.953Z,0.53
2023-01-01T14:52:03.720Z,1.37
2023-01-01T14:54:35.776Z,0.70
2023-01-01T14:57:04.229Z,0.47
2023-01-01T14:59:34.960Z,1.03
2023-01-01T15:02:14.638Z,0.47
2023-01-01T15:04:43.633Z,0.30
2023-01-01T15:07:20.661Z,0.77
2023-01-01T15:09:49.047Z,0.60
2023-01-01T15:12:18.409Z,0.87
2023-01-01T15:14:48.319Z,0.73
2023-01-01T15:17:17.870Z,0.50
2023-01-01T15:19:47.298Z,0.60
2023-01-01T15:22:19.023Z,0.37
2023-01-01T15:24:47.835Z,0.30
2023-01-01T15:27:23.225Z,0.40
2023-01-01T15:29:54.655Z,0.50
2023-01-01T15:32:26.656Z,1.03
2023-01-01T15:34:55.986Z,0.43
2023-01-01T15:37:25.209Z,0.87
2023-01-01T15:39:57.364Z,2.00
2023-01-01T15:42:32.888Z,0.73
2023-01-01T15:45:20.965Z,0.10
2023-01-01T15:47:50.291Z,1.50
2023-01-01T15:50:22.979Z,2.30
2023-01-01T15:52:55.698Z,0.57
2023-01-01T15:55:25.409Z,0.27
2023-01-01T15:57:54.457Z,0.93
2023-01-01T16:00:25.624Z,0.70
2023-01-01T16:02:55.240Z,0.33
2023-01-01T16:05:25.575Z,0.80
2023-01-01T16:07:58.946Z,0.20
2023-01-01T16:10:27.437Z,0.30
2023-01-01T16:12:55.762Z,0.43
2023-01-01T16:15:25.675Z,0.97
2023-01-01T16:17:55.142Z,0.43
2023-01-01T16:20:24.253Z,2.30
2023-01-01T16:22:52.528Z,0.30
2023-01-01T16:25:22.610Z,0.10
2023-01-01T16:27:51.529Z,0.73
2023-01-01T16:30:19.988Z,0.10
2023-01-01T16:32:49.793Z,1.77
2023-01-01T16:35:19.370Z,0.30
2023-01-01T16:37:47.661Z,0.10
2023-01-01T16:40:15.989Z,0.87
2023-01-01T16:42:44.395Z,0.60
2023-01-01T16:45:16.262Z,0.20
2023-01-01T16:47:45.825Z,0.37
2023-01-01T16:50:15.794Z,0.63
2023-01-01T16:52:45.449Z,0.37
2023-01-01T16:55:14.050Z,0.27
2023-01-01T16:57:44.062Z,1.27
2023-01-01T17:00:12.916Z,1.73
2023-01-01T17:02:41.599Z,0.73
2023-01-01T17:05:10.753Z,0.37
2023-01-01T17:07:40.382Z,0.10
2023-01-01T17:10:09.829Z,0.27
2023-01-01T17:12:39.143Z,0.47
2023-01-01T17:15:08.054Z,0.43
2023-01-01T17:17:36.551Z,2.40
2023-01-01T17:20:07.570Z,0.60
2023-01-01T17:22:37.080Z,0.50
2023-01-01T17:25:07.260Z,1.43
2023-01-01T17:27:36.983Z,0.20
2023-01-01T17:30:05.528Z,0.47
2023-01-01T17:32:35.058Z,1.03
2023-01-01T17:35:03.405Z,0.93
2023-01-01T17:37:33.301Z,0.50
2023-01-01T17:40:02.572Z,0.63
2023-01-01T17:42:32.238Z,0.80
2023-01-01T17:45:00.856Z,0.37
2023-01-01T17:47:32.834Z,1.13
2023-01-01T17:50:02.117Z,0.50
2023-01-01T17:52:31.129Z,0.57
2023-01-01T17:54:59.491Z,0.30
2023-01-01T17:57:28.916Z,0.23
2023-01-01T17:59:59.355Z,0.60
2023-01-01T18:02:27.850Z,0.70
2023-01-01T18:04:56.352Z,1.37
2023-01-01T18:07:25.861Z,1.17
2023-01-01T18:09:54.374Z,0.67
2023-01-01T18:12:22.647Z,0.30
2023-01-01T18:14:51.609Z,0.93
2023-01-01T18:17:21.291Z,1.10
2023-01-01T18:19:49.632Z,0.30
2023-01-01T18:22:17.936Z,0.93
2023-01-01T18:24:46.344Z,0.70
2023-01-01T18:27:14.662Z,0.10
2023-01-01T18:29:42.951Z,0.90
2023-01-01T18:32:11.331Z,1.17
2023-01-01T18:34:41.110Z,0.83
2023-01-01T18:37:09.461Z,0.97
2023-01-01T18:39:41.753Z,0.47
2023-01-01T18:42:16.133Z,0.67
2023-01-01T18:44:44.578Z,0.93
2023-01-01T18:47:17.024Z,0.80
2023-01-01T18:49:49.482Z,0.50
2023-01-01T18:52:26.339Z,1.10
2023-01-01T18:55:01.393Z,0.70
2023-01-01T18:57:30.067Z,0.20
2023-01-01T19:00:00.749Z,0.90
2023-01-01T19:02:30.621Z,1.40
2023-01-01T19:05:07.721Z,0.40
2023-01-01T19:07:36.050Z,0.20
2023-01-01T19:10:10.650Z,0.00
2023-01-01T19:12:39.023Z,0.40
2023-01-01T19:15:15.267Z,0.97
2023-01-01T19:17:43.688Z,0.63
2023-01-01T19:20:25.268Z,0.87
2023-01-01T19:22:53.786Z,0.37
2023-01-01T19:25:37.082Z,0.57
2023-01-01T19:28:29.819Z,1.20
2023-01-01T19:30:58.174Z,1.00
2023-01-01T19:33:26.649Z,0.40
2023-01-01T19:35:57.206Z,0.40
2023-01-01T19:38:25.891Z,0.97
2023-01-01T19:40:54.185Z,1.37
2023-01-01T19:43:22.835Z,2.10
2023-01-01T19:45:51.081Z,0.87
2023-01-01T19:48:19.549Z,1.70
2023-01-01T19:50:48.230Z,1.20
2023-01-01T19:53:17.941Z,1.57
2023-01-01T19:55:46.489Z,2.23
2023-01-01T19:58:14.996Z,0.10
2023-01-01T20:00:43.574Z,0.93
2023-01-01T20:03:52.907Z,2.37
2023-01-01T20:06:02.451Z,1.03
2023-01-01T20:08:32.443Z,0.50
2023-01-01T20:11:01.047Z,0.83
2023-01-01T20:13:29.339Z,0.37
2023-01-01T20:15:58.241Z,0.20
2023-01-01T20:18:26.701Z,0.40
2023-01-01T20:21:13.000Z,0.23
2023-01-01T20:23:43.281Z,0.93
2023-01-01T20:26:11.790Z,0.87
2023-01-01T20:28:58.228Z,0.10
2023-01-01T20:31:26.561Z,1.30
2023-01-01T20:33:54.868Z,0.10
2023-01-01T20:36:40.795Z,0.43
2023-01-01T20:39:10.424Z,0.30
2023-01-01T20:41:38.801Z,0.30
2023-01-01T20:44:07.113Z,0.60
2023-01-01T20:46:38.107Z,0.30
2023-01-01T20:49:06.886Z,0.53
2023-01-01T20:51:35.433Z,0.10
2023-01-01T20:54:03.711Z,0.30
2023-01-01T20:56:33.325Z,0.20
2023-01-01T20:59:12.380Z,0.47
2023-01-01T21:01:50.412Z,0.17
2023-01-01T21:04:19.941Z,1.07
2023-01-01T21:06:48.680Z,0.77
2023-01-01T21:09:18.064Z,0.10
2023-01-01T21:11:48.844Z,0.20
2023-01-01T21:14:17.980Z,0.87
2023-01-01T21:16:46.851Z,0.43
2023-01-01T21:19:15.362Z,1.10
2023-01-01T21:21:45.775Z,0.17
2023-01-01T21:24:20.050Z,0.40
2023-01-01T21:26:50.175Z,0.10
2023-01-01T21:29:19.011Z,0.10
2023-01-01T21:31:48.351Z,0.80
2023-01-01T21:34:38.137Z,0.40
2023-01-01T21:37:12.294Z,0.10
2023-01-01T21:39:40.628Z,0.10
2023-01-01T21:42:17.991Z,0.53
2023-01-01T21:44:46.265Z,0.60
2023-01-01T21:47:24.269Z,0.20
2023-01-01T21:49:54.427Z,0.77
2023-01-01T21:52:24.755Z,0.20
2023-01-01T21:54:53.228Z,0.77
2023-01-01T21:57:23.361Z,0.20
2023-01-01T21:59:54.159Z,0.10
2023-01-01T22:02:33.154Z,0.47
2023-01-01T22:05:02.551Z,0.10
2023-01-01T22:10:24.305Z,0.77
2023-01-01T22:12:57.526Z,0.30
2023-01-01T22:15:35.905Z,1.57
2023-01-01T22:18:16.257Z,0.20
2023-01-01T22:20:46.539Z,0.47
2023-01-01T22:23:24.158Z,0.87
2023-01-01T22:25:53.111Z,0.30
2023-01-01T22:28:25.265Z,0.20
2023-01-01T22:30:55.345Z,0.10
2023-01-01T22:33:25.355Z,0.60
2023-01-01T22:35:55.476Z,0.30
2023-01-01T22:38:25.204Z,1.10
2023-01-01T22:40:54.844Z,1.33
2023-01-01T22:43:27.596Z,0.40
2023-01-01T22:45:56.458Z,0.20
2023-01-01T22:48:25.423Z,0.70
2023-01-01T22:50:55.354Z,0.20
2023-01-01T22:53:23.960Z,0.73
2023-01-01T22:55:52.239Z,1.60
2023-01-01T22:58:20.506Z,0.17
2023-01-01T23:00:50.328Z,0.10
2023-01-01T23:03:18.585Z,0.20
2023-01-01T23:05:46.926Z,0.50
2023-01-01T23:08:15.222Z,1.07
2023-01-01T23:10:43.476Z,0.47
2023-01-01T23:13:31.820Z,1.27
2023-01-01T23:16:01.594Z,0.17
2023-01-01T23:18:31.352Z,0.03
2023-01-01T23:21:01.065Z,0.10
2023-01-01T23:23:30.823Z,0.63
2023-01-01T23:25:59.542Z,1.80
2023-01-01T23:28:28.858Z,0.67
2023-01-01T23:30:57.739Z,0.60
2023-01-01T23:33:28.197Z,2.97
2023-01-01T23:35:56.779Z,0.20
2023-01-01T23:38:25.537Z,0.60
2023-01-01T23:40:53.849Z,0.23
2023-01-01T23:43:22.136Z,0.40
2023-01-01T23:45:50.527Z,0.67
2023-01-01T23:48:19.357Z,0.20
2023-01-01T23:50:49.135Z,0.20
2023-01-01T23:53:17.386Z,0.50
2023-01-01T23:55:46.599Z,0.50
2023-01-01T23:58:16.702Z,0.07
